Time;durP1;ratioP1;P1;durP2;ratioP2;P2;SDS_P1;SDS_P2;PMS_P1;PMS_P2;Temp;Humidity;BMP_temperature;BMP_pressure;BME280_temperature;BME280_humidity;BME280_pressure;Samples;Min_cycle;Max_cycle;Signal;HPM_P1;HPM_P2
2021/03/09 00:01:26;;;;;;;19.95;15.05;;;6.50;68.50;;;;;;5073919;28;20036;-55
2021/03/09 00:03:52;;;;;;;21.88;15.77;;;6.40;68.90;;;;;;5073746;28;20438;-51
2021/03/09 00:06:18;;;;;;;19.08;14.20;;;6.40;68.60;;;;;;5073781;28;20028;-54
2021/03/09 00:08:43;;;;;;;20.08;14.18;;;6.50;68.90;;;;;;5073824;28;20537;-52
2021/03/09 00:11:09;;;;;;;23.17;14.25;;;6.40;68.80;;;;;;5073238;28;20029;-57
2021/03/09 00:13:35;;;;;;;17.85;13.73;;;6.40;69.10;;;;;;5073883;28;20033;-52
2021/03/09 00:16:00;;;;;;;19.60;14.52;;;6.40;69.20;;;;;;5073764;28;20032;-57
2021/03/09 00:18:26;;;;;;;19.80;13.73;;;6.30;69.70;;;;;;5073748;28;20024;-52
2021/03/09 00:20:52;;;;;;;19.95;13.60;;;6.20;70.30;;;;;;5073674;28;20049;-53
2021/03/09 00:23:17;;;;;;;17.52;13.02;;;6.10;70.40;;;;;;5073467;28;20150;-56
2021/03/09 00:25:43;;;;;;;19.13;12.85;;;6.20;70.70;;;;;;5077606;28;20039;-55
2021/03/09 00:28:09;;;;;;;21.23;13.48;;;6.20;70.90;;;;;;5094051;28;20039;-53
2021/03/09 00:30:35;;;;;;;21.13;14.52;;;6.20;71.00;;;;;;5075178;28;20045;-49
2021/03/09 00:33:00;;;;;;;21.50;14.93;;;6.20;71.20;;;;;;5093617;28;20528;-58
2021/03/09 00:35:26;;;;;;;18.92;14.13;;;6.20;71.60;;;;;;5075125;28;20122;-57
2021/03/09 00:37:52;;;;;;;19.98;14.23;;;6.20;71.60;;;;;;5093761;28;20081;-54
2021/03/09 00:40:18;;;;;;;19.15;13.85;;;6.20;72.20;;;;;;5093776;28;20031;-56
2021/03/09 00:42:43;;;;;;;20.83;13.68;;;6.20;72.20;;;;;;5074959;28;20451;-54
2021/03/09 00:45:10;;;;;;;21.38;13.57;;;6.10;72.60;;;;;;5093675;28;20035;-57
2021/03/09 00:47:36;;;;;;;19.20;14.13;;;5.90;73.70;;;;;;5058169;28;20072;-58
2021/03/09 00:50:02;;;;;;;21.20;13.57;;;6.00;73.30;;;;;;5093445;28;20031;-55
2021/03/09 00:52:27;;;;;;;18.30;13.27;;;6.00;73.80;;;;;;5093531;28;20070;-53
2021/03/09 00:54:53;;;;;;;21.25;13.10;;;6.00;74.10;;;;;;5093697;28;20040;-52
2021/03/09 00:57:19;;;;;;;18.58;12.88;;;6.00;74.40;;;;;;5093682;28;20039;-54
2021/03/09 00:59:44;;;;;;;19.35;13.55;;;6.00;74.50;;;;;;5093780;28;20119;-52
2021/03/09 01:02:10;;;;;;;18.98;13.38;;;6.00;74.50;;;;;;5093533;28;20612;-58
2021/03/09 01:04:36;;;;;;;16.50;12.98;;;6.00;74.70;;;;;;5093575;28;20024;-53
2021/03/09 01:07:02;;;;;;;20.13;14.18;;;6.00;74.60;;;;;;5093684;28;20046;-54
2021/03/09 01:09:27;;;;;;;17.35;13.07;;;6.10;75.30;;;;;;5093699;28;20035;-57
2021/03/09 01:11:53;;;;;;;18.02;13.13;;;6.10;74.70;;;;;;5093627;28;20085;-55
2021/03/09 01:14:19;;;;;;;17.30;12.80;;;6.00;75.20;;;;;;5093498;28;20383;-57
2021/03/09 01:16:44;;;;;;;18.48;12.70;;;6.10;75.30;;;;;;5093629;28;20533;-54
2021/03/09 01:19:10;;;;;;;18.55;14.90;;;6.10;75.60;;;;;;5077423;28;20426;-55
2021/03/09 01:21:36;;;;;;;19.80;15.52;;;6.10;75.70;;;;;;5073010;28;20033;-53
2021/03/09 01:24:02;;;;;;;18.10;13.77;;;6.10;75.60;;;;;;5076100;28;20498;-55
2021/03/09 01:26:29;;;;;;;18.75;13.15;;;6.10;75.70;;;;;;5058881;28;20050;-53
2021/03/09 01:28:55;;;;;;;17.33;12.65;;;6.20;75.70;;;;;;5077004;28;20047;-56
2021/03/09 01:31:20;;;;;;;18.38;13.02;;;6.10;76.10;;;;;;5076886;28;20028;-50
2021/03/09 01:33:47;;;;;;;17.23;12.57;;;6.00;76.20;;;;;;5058680;28;20379;-59
2021/03/09 01:36:13;;;;;;;18.25;13.18;;;5.90;76.80;;;;;;5076631;28;20103;-57
2021/03/09 01:38:38;;;;;;;18.48;13.57;;;6.00;77.40;;;;;;5075506;28;20133;-52
2021/03/09 01:41:04;;;;;;;23.65;14.27;;;6.00;76.80;;;;;;5058379;28;20036;-49
2021/03/09 01:43:32;;;;;;;20.60;13.90;;;6.10;77.10;;;;;;5076903;28;20371;-47
2021/03/09 01:45:58;;;;;;;24.52;19.27;;;6.10;77.20;;;;;;5076712;28;20037;-50
2021/03/09 01:48:31;;;;;;;30.75;23.90;;;6.10;77.10;;;;;;5076187;28;20106;-57
2021/03/09 01:50:57;;;;;;;39.05;27.77;;;6.00;77.30;;;;;;5076419;28;20040;-53
2021/03/09 01:53:23;;;;;;;35.30;27.13;;;6.00;77.70;;;;;;5076569;28;20375;-55
2021/03/09 01:55:49;;;;;;;38.35;28.85;;;6.00;77.80;;;;;;5076646;28;20119;-56
2021/03/09 01:58:16;;;;;;;29.48;22.70;;;6.00;77.90;;;;;;5076311;28;20649;-50
2021/03/09 02:00:42;;;;;;;26.60;21.65;;;6.00;78.10;;;;;;5076153;28;20506;-50
2021/03/09 02:03:08;;;;;;;20.70;15.93;;;6.00;78.20;;;;;;5078084;28;20029;-55
2021/03/09 02:05:35;;;;;;;17.55;13.27;;;6.00;78.40;;;;;;5076296;28;20348;-51
2021/03/09 02:08:01;;;;;;;17.95;13.18;;;6.00;78.80;;;;;;5076278;28;20028;-54
2021/03/09 02:10:27;;;;;;;18.27;13.40;;;6.00;79.20;;;;;;5076145;28;20519;-49
2021/03/09 02:12:56;;;;;;;17.17;13.20;;;5.90;79.70;;;;;;5075936;28;20052;-53
2021/03/09 02:15:39;;;;;;;16.83;12.68;;;5.80;80.30;;;;;;5076103;28;20016;-51
2021/03/09 02:18:12;;;;;;;16.73;12.63;;;5.80;80.50;;;;;;5076156;28;20112;-51
2021/03/09 02:21:15;;;;;;;19.33;13.43;;;5.90;80.60;;;;;;5076084;28;20076;-51
2021/03/09 02:24:08;;;;;;;19.42;13.32;;;5.80;81.00;;;;;;5076082;28;20108;-58
2021/03/09 02:26:50;;;;;;;17.55;13.50;;;5.80;81.60;;;;;;5076012;28;20036;-52
2021/03/09 02:29:40;;;;;;;21.25;13.18;;;5.80;81.60;;;;;;5076288;28;20025;-51
2021/03/09 02:32:12;;;;;;;17.77;13.70;;;5.80;81.80;;;;;;5076147;28;20032;-56
2021/03/09 02:34:48;;;;;;;17.85;13.43;;;5.80;81.60;;;;;;5075664;28;20032;-55
2021/03/09 02:37:16;;;;;;;19.58;13.75;;;5.90;81.70;;;;;;5075530;28;20540;-50
2021/03/09 02:39:45;;;;;;;17.73;12.98;;;5.80;82.20;;;;;;5075759;28;20043;-55
2021/03/09 02:42:20;;;;;;;15.73;12.73;;;5.70;82.70;;;;;;5075592;28;20040;-52
2021/03/09 02:44:47;;;;;;;15.43;11.93;;;5.80;82.80;;;;;;5075709;28;20028;-58
2021/03/09 02:47:15;;;;;;;15.27;11.60;;;5.70;83.00;;;;;;5075551;28;20032;-51
2021/03/09 02:49:43;;;;;;;15.82;12.63;;;5.70;83.50;;;;;;5075378;28;20031;-55
2021/03/09 02:52:16;;;;;;;17.73;11.73;;;5.70;83.80;;;;;;5075306;28;20055;-54
2021/03/09 02:54:44;;;;;;;17.98;12.32;;;5.60;84.40;;;;;;5075457;28;20035;-54
2021/03/09 02:57:12;;;;;;;17.42;12.38;;;5.30;86.40;;;;;;5073690;28;20426;-52
2021/03/09 02:59:40;;;;;;;17.98;12.40;;;5.20;87.80;;;;;;5076887;28;20024;-52
2021/03/09 03:02:06;;;;;;;14.40;11.90;;;5.20;87.60;;;;;;5077512;28;20041;-57
2021/03/09 03:04:33;;;;;;;14.88;11.32;;;5.30;87.50;;;;;;5076359;28;20048;-53
2021/03/09 03:07:00;;;;;;;16.75;12.85;;;5.40;87.40;;;;;;5074972;28;20029;-51
2021/03/09 03:09:27;;;;;;;14.65;11.65;;;5.40;87.40;;;;;;5075102;28;20024;-55
2021/03/09 03:11:54;;;;;;;18.05;12.82;;;5.40;87.40;;;;;;5075274;28;20021;-51
2021/03/09 03:14:21;;;;;;;16.52;12.18;;;5.30;88.00;;;;;;5074727;28;20376;-50
2021/03/09 03:16:47;;;;;;;16.20;11.52;;;5.30;88.20;;;;;;5075313;28;20040;-51
2021/03/09 03:19:15;;;;;;;21.23;14.25;;;5.40;88.30;;;;;;5074601;28;20024;-54
2021/03/09 03:21:42;;;;;;;19.48;13.40;;;5.30;88.60;;;;;;5075130;28;20035;-55
2021/03/09 03:24:10;;;;;;;21.98;14.10;;;5.40;88.70;;;;;;5056628;28;20101;-52
2021/03/09 03:26:45;;;;;;;18.70;13.05;;;5.40;88.80;;;;;;5075020;28;20035;-49
2021/03/09 03:29:12;;;;;;;20.55;14.80;;;5.40;89.30;;;;;;5074837;28;20070;-55
2021/03/09 03:31:38;;;;;;;18.33;13.48;;;5.40;89.70;;;;;;5074329;28;20111;-54
2021/03/09 03:34:05;;;;;;;16.65;12.57;;;;;;;;;;5074774;28;20036;-55
2021/03/09 03:36:36;;;;;;;17.95;12.57;;;5.00;90.80;;;;;;5056198;28;20040;-55
2021/03/09 03:39:02;;;;;;;20.38;13.95;;;4.60;92.80;;;;;;5074688;28;20024;-54
2021/03/09 03:41:28;;;;;;;17.05;13.48;;;4.70;93.20;;;;;;5074805;28;20468;-50
2021/03/09 03:43:53;;;;;;;17.40;12.77;;;4.80;93.00;;;;;;5074484;28;20035;-55
2021/03/09 03:46:19;;;;;;;17.95;13.02;;;4.90;92.90;;;;;;5073989;28;20494;-50
2021/03/09 03:48:46;;;;;;;18.42;12.30;;;5.00;92.70;;;;;;5074617;28;20532;-56
2021/03/09 03:51:15;;;;;;;18.77;13.35;;;5.00;92.70;;;;;;5074377;28;20056;-51
2021/03/09 03:54:15;;;;;;;16.17;12.90;;;5.10;92.80;;;;;;5074419;28;20540;-56
2021/03/09 03:57:06;;;;;;;16.88;12.75;;;5.10;92.90;;;;;;5074609;28;20118;-48
2021/03/09 03:59:38;;;;;;;18.40;13.27;;;5.10;93.20;;;;;;5074617;28;20032;-55
2021/03/09 04:02:06;;;;;;;;;;;5.00;93.30;;;;;;5074214;28;20043;-51
2021/03/09 04:04:34;;;;;;;18.65;13.10;;;5.00;93.30;;;;;;5074212;28;19904;-54
2021/03/09 04:07:01;;;;;;;19.20;13.82;;;5.00;93.60;;;;;;5073986;28;20107;-55
2021/03/09 04:09:27;;;;;;;19.27;13.35;;;4.80;94.30;;;;;;5074802;28;20028;-52
2021/03/09 04:11:56;;;;;;;21.52;14.60;;;4.90;94.30;;;;;;5074750;28;20035;-50
2021/03/09 04:14:22;;;;;;;20.33;13.90;;;4.90;94.40;;;;;;5074064;28;20054;-55
2021/03/09 04:16:53;;;;;;;17.90;13.73;;;5.00;94.30;;;;;;5073587;28;20095;-52
2021/03/09 04:19:22;;;;;;;23.13;14.90;;;5.00;94.30;;;;;;5074497;28;20132;-54
2021/03/09 04:21:48;;;;;;;18.92;13.38;;;5.00;94.40;;;;;;5073826;28;20077;-57
2021/03/09 04:24:15;;;;;;;21.30;14.20;;;5.00;94.50;;;;;;5073882;28;20037;-53
2021/03/09 04:26:43;;;;;;;21.50;14.48;;;5.00;94.70;;;;;;5074231;28;20025;-52
2021/03/09 04:29:13;;;;;;;20.17;14.77;;;4.90;95.10;;;;;;5073962;28;20031;-55
2021/03/09 04:31:41;;;;;;;20.80;14.32;;;4.90;95.10;;;;;;5074177;28;20028;-49
2021/03/09 04:34:08;;;;;;;18.00;13.88;;;4.80;95.50;;;;;;5074098;28;20107;-52
2021/03/09 04:36:34;;;;;;;21.38;14.38;;;4.90;95.70;;;;;;5073931;28;20028;-55
2021/03/09 04:39:02;;;;;;;23.83;15.13;;;4.90;95.70;;;;;;5073767;28;20383;-52
2021/03/09 04:41:28;;;;;;;20.02;15.02;;;5.00;95.60;;;;;;5073353;28;20033;-53
2021/03/09 04:43:54;;;;;;;23.75;14.82;;;5.00;95.60;;;;;;5073877;28;20082;-52
2021/03/09 04:46:21;;;;;;;22.45;15.60;;;5.00;95.50;;;;;;5073960;28;20020;-52
2021/03/09 04:48:48;;;;;;;24.42;16.45;;;5.10;95.60;;;;;;5074006;28;20024;-54
2021/03/09 04:51:16;;;;;;;26.13;17.70;;;5.10;95.80;;;;;;5073453;28;20080;-57
2021/03/09 04:53:43;;;;;;;22.33;16.25;;;5.10;95.80;;;;;;5073537;28;20032;-49
2021/03/09 04:56:09;;;;;;;23.05;15.95;;;5.10;95.70;;;;;;5073488;28;20052;-50
2021/03/09 04:58:36;;;;;;;23.30;15.82;;;5.20;95.70;;;;;;5077717;28;20029;-53
2021/03/09 05:01:03;;;;;;;22.35;15.00;;;5.20;96.00;;;;;;5060796;28;20407;-52
2021/03/09 05:03:28;;;;;;;20.60;15.35;;;5.30;95.60;;;;;;5080560;28;20103;-50
2021/03/09 05:05:54;;;;;;;21.40;16.05;;;5.30;95.50;;;;;;5077513;28;20170;-51
2021/03/09 05:08:21;;;;;;;25.45;15.85;;;5.30;95.60;;;;;;5077325;28;20032;-53
2021/03/09 05:10:47;;;;;;;26.33;17.10;;;5.20;95.70;;;;;;5077435;28;20382;-55
2021/03/09 05:13:15;;;;;;;38.28;18.42;;;5.20;96.00;;;;;;5077376;28;20098;-52
2021/03/09 05:15:41;;;;;;;29.33;19.98;;;5.20;96.30;;;;;;5077269;28;20032;-52
2021/03/09 05:18:06;;;;;;;25.85;15.45;;;5.30;96.20;;;;;;5058831;28;20402;-52
2021/03/09 05:20:32;;;;;;;21.50;16.20;;;5.30;96.10;;;;;;5058683;28;20044;-52
2021/03/09 05:22:58;;;;;;;30.15;17.67;;;5.30;96.20;;;;;;5077734;28;20045;-64
2021/03/09 05:25:24;;;;;;;28.13;17.88;;;5.30;96.30;;;;;;5078691;28;20035;-53
2021/03/09 05:27:50;;;;;;;23.65;16.60;;;5.20;96.30;;;;;;5077016;28;20032;-56
2021/03/09 05:30:19;;;;;;;36.65;27.83;;;5.30;96.60;;;;;;5075481;28;20040;-54
2021/03/09 05:32:45;;;;;;;38.03;30.08;;;5.10;97.10;;;;;;5076989;28;20085;-52
2021/03/09 05:35:13;;;;;;;27.02;20.92;;;4.90;98.20;;;;;;5077109;28;20438;-51
2021/03/09 05:37:39;;;;;;;39.80;24.52;;;5.10;97.80;;;;;;5077069;28;20112;-51
2021/03/09 05:40:06;;;;;;;33.78;22.92;;;5.20;97.70;;;;;;5077113;28;20032;-57
2021/03/09 05:42:33;;;;;;;32.38;23.80;;;5.40;97.40;;;;;;5060074;28;20049;-54
2021/03/09 05:44:58;;;;;;;38.55;22.35;;;5.50;97.50;;;;;;5078469;28;20032;-50
2021/03/09 05:47:24;;;;;;;55.78;40.63;;;5.60;97.40;;;;;;5076558;28;20383;-55
2021/03/09 05:49:50;;;;;;;54.40;40.53;;;5.70;97.20;;;;;;5079131;28;20099;-51
2021/03/09 05:52:17;;;;;;;40.90;25.15;;;5.60;97.10;;;;;;5090432;28;20048;-55
2021/03/09 05:54:44;;;;;;;56.45;32.58;;;5.30;98.00;;;;;;5096854;28;20031;-50
2021/03/09 05:57:10;;;;;;;40.00;24.63;;;;;;;;;;5096654;28;20433;-55
2021/03/09 05:59:35;;;;;;;38.22;23.67;;;3.50;99.90;;;;;;5097410;28;20024;-55
2021/03/09 06:02:05;;;;;;;73.78;40.55;;;3.10;99.90;;;;;;5096712;28;20062;-50
2021/03/09 06:04:33;;;;;;;53.13;32.90;;;3.00;99.90;;;;;;5096712;28;20103;-53
2021/03/09 06:06:59;;;;;;;45.53;31.50;;;3.30;99.90;;;;;;5097104;28;20066;-51
2021/03/09 06:09:34;;;;;;;42.45;26.85;;;;;;;;;;5095802;28;20515;-51
2021/03/09 06:12:13;;;;;;;38.50;28.65;;;2.90;99.90;;;;;;5096147;28;20028;-49
2021/03/09 06:14:59;;;;;;;44.83;34.33;;;3.20;99.90;;;;;;5096739;28;20020;-55
2021/03/09 06:17:26;;;;;;;35.13;24.85;;;3.10;99.90;;;;;;5096897;28;20039;-54
2021/03/09 06:19:52;;;;;;;28.70;20.40;;;3.00;99.90;;;;;;5096681;28;20101;-54
2021/03/09 06:22:19;;;;;;;34.72;24.08;;;3.20;99.90;;;;;;5096669;28;20032;-52
2021/03/09 06:24:46;;;;;;;68.18;45.10;;;3.70;99.90;;;;;;5097163;28;20073;-48
2021/03/09 06:27:26;;;;;;;50.58;38.25;;;4.20;99.90;;;;;;5096225;28;20371;-52
2021/03/09 06:29:52;;;;;;;55.28;40.78;;;4.60;99.90;;;;;;5076004;28;20039;-54
2021/03/09 06:32:19;;;;;;;63.80;45.10;;;5.00;99.90;;;;;;5096806;28;20052;-56
2021/03/09 06:34:45;;;;;;;59.38;40.67;;;5.30;99.90;;;;;;5079916;28;20093;-54
2021/03/09 06:37:13;;;;;;;84.18;62.17;;;5.60;99.90;;;;;;5100115;28;20020;-59
2021/03/09 06:39:58;;;;;;;79.40;56.17;;;5.80;99.90;;;;;;5097055;28;20111;-55
2021/03/09 06:42:42;;;;;;;56.90;43.05;;;6.00;99.90;;;;;;5094747;28;20063;-55
2021/03/09 06:45:15;;;;;;;67.63;46.03;;;6.20;99.90;;;;;;5097122;28;20024;-49
2021/03/09 06:47:48;;;;;;;57.97;37.30;;;6.40;99.90;;;;;;5097673;28;20028;-55
2021/03/09 06:50:18;;;;;;;45.15;27.75;;;6.50;99.90;;;;;;5096931;28;20056;-56
2021/03/09 06:52:56;;;;;;;45.45;30.75;;;6.80;99.90;;;;;;5095809;28;20028;-53
2021/03/09 06:55:28;;;;;;;54.33;38.30;;;7.00;99.90;;;;;;5095694;28;20030;-49
2021/03/09 06:58:11;;;;;;;52.40;36.88;;;7.20;99.90;;;;;;5095586;28;20447;-52
2021/03/09 07:00:38;;;;;;;48.70;34.35;;;7.40;99.90;;;;;;5095388;28;20044;-53
2021/03/09 07:03:04;;;;;;;42.92;30.67;;;7.50;99.90;;;;;;5095423;28;20040;-52
2021/03/09 07:05:30;;;;;;;38.05;28.85;;;7.70;99.90;;;;;;5095622;28;20103;-55
2021/03/09 07:07:56;;;;;;;33.85;25.40;;;;;;;;;;5095431;28;20048;-63
2021/03/09 07:10:28;;;;;;;31.58;23.58;;;8.40;99.90;;;;;;5095307;28;20028;-59
2021/03/09 07:12:54;;;;;;;29.40;21.05;;;;;;;;;;5095090;28;20032;-59
2021/03/09 07:15:21;;;;;;;28.65;20.65;;;8.60;99.90;;;;;;5095053;28;20442;-62
2021/03/09 07:17:51;;;;;;;30.77;22.65;;;8.50;99.80;;;;;;5095376;28;20073;-52
2021/03/09 07:20:17;;;;;;;29.92;20.10;;;8.70;99.90;;;;;;5094386;28;20055;-55
2021/03/09 07:22:45;;;;;;;29.27;22.02;;;8.60;98.30;;;;;;5095152;28;20031;-55
2021/03/09 07:25:16;;;;;;;37.35;25.25;;;8.70;97.40;;;;;;5095235;28;20028;-62
2021/03/09 07:28:03;;;;;;;40.10;25.50;;;9.10;99.90;;;;;;5095223;28;20032;-54
2021/03/09 07:30:31;;;;;;;34.47;23.65;;;8.90;98.50;;;;;;5094854;28;20028;-60
2021/03/09 07:32:58;;;;;;;28.77;20.25;;;;;;;;;;5094729;28;20463;-62
2021/03/09 07:35:27;;;;;;;27.30;19.15;;;9.00;99.90;;;;;;5094910;28;20391;-54
2021/03/09 07:37:54;;;;;;;24.55;19.13;;;8.30;99.80;;;;;;5094642;28;20386;-54
2021/03/09 07:40:23;;;;;;;20.63;15.85;;;8.10;92.80;;;;;;5075905;28;20490;-56
2021/03/09 07:42:49;;;;;;;24.42;17.50;;;8.00;91.60;;;;;;5094476;28;20043;-60
2021/03/09 07:45:18;;;;;;;24.95;17.35;;;8.40;90.80;;;;;;5094948;28;20459;-59
2021/03/09 07:47:49;;;;;;;25.45;17.65;;;9.00;93.80;;;;;;5094544;28;20031;-63
2021/03/09 07:50:16;;;;;;;24.20;17.25;;;8.90;93.20;;;;;;5094346;28;20086;-59
2021/03/09 07:53:14;;;;;;;21.85;16.50;;;9.00;88.40;;;;;;5093184;28;20557;-56
2021/03/09 07:55:47;;;;;;;24.65;18.88;;;9.60;89.60;;;;;;5094233;28;20464;-62
2021/03/09 07:58:19;;;;;;;26.40;18.83;;;9.90;88.70;;;;;;5094372;28;20036;-57
2021/03/09 08:01:10;;;;;;;23.25;17.42;;;10.30;85.70;;;;;;5094291;28;20024;-54
2021/03/09 08:03:38;;;;;;;27.75;19.27;;;9.60;82.70;;;;;;5075520;28;20039;-57
2021/03/09 08:06:12;;;;;;;27.02;21.05;;;10.30;81.80;;;;;;5094521;28;20024;-54
2021/03/09 08:08:42;;;;;;;32.22;24.33;;;10.10;83.40;;;;;;5093916;28;20024;-51
2021/03/09 08:11:28;;;;;;;28.08;21.27;;;9.90;81.70;;;;;;5093906;28;20027;-56
2021/03/09 08:14:08;;;;;;;24.35;17.92;;;11.20;81.70;;;;;;5031840;28;20048;-56
2021/03/09 08:16:37;;;;;;;24.25;18.02;;;11.70;75.30;;;;;;5031799;28;20080;-53
2021/03/09 08:19:06;;;;;;;27.45;18.80;;;11.30;75.60;;;;;;5031430;28;20037;-57
2021/03/09 08:21:46;;;;;;;30.17;21.33;;;11.50;74.60;;;;;;5031880;28;20033;-59
2021/03/09 08:24:12;;;;;;;34.53;28.70;;;12.10;75.50;;;;;;5031513;28;20029;-58
2021/03/09 08:26:37;;;;;;;21.77;16.10;;;12.40;72.60;;;;;;5031579;28;20385;-53
2021/03/09 08:29:29;;;;;;;21.27;16.83;;;10.80;72.20;;;;;;5031525;28;20030;-56
2021/03/09 08:32:26;;;;;;;24.75;17.73;;;10.60;72.70;;;;;;5031357;28;20051;-49
2021/03/09 08:35:12;;;;;;;22.83;16.45;;;10.30;77.10;;;;;;5031157;28;20095;-53
2021/03/09 08:37:42;;;;;;;23.83;16.48;;;11.40;75.30;;;;;;5031373;28;20045;-49
2021/03/09 08:40:14;;;;;;;20.63;16.13;;;11.00;73.00;;;;;;5031838;28;20031;-55
2021/03/09 08:43:01;;;;;;;19.27;15.57;;;10.50;71.60;;;;;;5031591;28;20042;-57
2021/03/09 08:45:40;;;;;;;20.63;16.42;;;10.10;72.50;;;;;;5014394;28;20040;-54
2021/03/09 08:48:08;;;;;;;18.38;16.08;;;10.60;70.40;;;;;;5031137;28;20032;-52
2021/03/09 08:50:45;;;;;;;21.15;17.10;;;11.10;71.70;;;;;;5051598;28;20047;-51
2021/03/09 08:53:31;;;;;;;19.85;16.42;;;11.50;70.30;;;;;;5086201;28;20047;-56
2021/03/09 08:55:59;;;;;;;22.73;16.58;;;12.50;69.20;;;;;;5093367;28;20058;-54
2021/03/09 08:58:25;;;;;;;24.60;17.80;;;12.60;67.50;;;;;;5093732;28;20060;-58
2021/03/09 09:00:52;;;;;;;22.95;16.70;;;13.00;67.50;;;;;;5093445;28;20067;-54
2021/03/09 09:03:37;;;;;;;19.88;16.58;;;13.10;65.40;;;;;;5108575;28;20135;-54
2021/03/09 09:06:07;;;;;;;22.10;17.00;;;13.00;65.50;;;;;;5093480;28;20406;-57
2021/03/09 09:08:34;;;;;;;19.98;16.27;;;12.40;66.40;;;;;;5093426;28;20576;-54
2021/03/09 09:11:01;;;;;;;20.92;14.68;;;12.60;66.00;;;;;;5093218;28;20360;-55
2021/03/09 09:13:28;;;;;;;19.90;16.27;;;12.70;65.40;;;;;;5093277;28;20028;-54
2021/03/09 09:15:54;;;;;;;20.75;16.15;;;13.00;66.20;;;;;;5093428;28;20051;-54
2021/03/09 09:18:21;;;;;;;19.92;15.38;;;13.20;65.20;;;;;;5093424;28;20391;-56
2021/03/09 09:20:48;;;;;;;17.92;14.98;;;13.70;63.30;;;;;;5093223;28;20386;-52
2021/03/09 09:23:28;;;;;;;22.83;16.85;;;12.80;63.50;;;;;;5093057;28;20079;-54
2021/03/09 09:25:56;;;;;;;19.63;15.52;;;13.10;64.30;;;;;;5093388;28;20024;-53
2021/03/09 09:28:26;;;;;;;16.30;14.55;;;12.30;64.80;;;;;;5108687;28;20083;-57
2021/03/09 09:30:54;;;;;;;17.42;14.65;;;12.20;64.90;;;;;;5108641;28;20443;-56
2021/03/09 09:33:20;;;;;;;20.88;15.77;;;12.10;66.80;;;;;;5093120;28;20032;-50
2021/03/09 09:35:48;;;;;;;19.67;15.43;;;12.70;67.30;;;;;;5093198;28;20395;-53
2021/03/09 09:38:16;;;;;;;20.67;17.35;;;12.90;65.60;;;;;;5093014;28;20115;-54
2021/03/09 09:40:48;;;;;;;19.63;15.55;;;12.10;64.10;;;;;;5092942;28;20028;-55
2021/03/09 09:43:16;;;;;;;20.52;16.40;;;11.70;64.60;;;;;;5091916;28;20364;-53
2021/03/09 09:45:49;;;;;;;19.58;17.10;;;11.80;66.20;;;;;;5096485;28;20028;-59
2021/03/09 09:48:17;;;;;;;25.00;17.13;;;11.80;65.70;;;;;;5096733;28;20032;-54
2021/03/09 09:50:55;;;;;;;25.10;16.80;;;11.70;67.30;;;;;;5096663;28;20051;-60
2021/03/09 09:53:40;;;;;;;18.60;14.75;;;12.40;66.00;;;;;;5096575;28;20138;-55
2021/03/09 09:56:10;;;;;;;20.08;14.98;;;12.20;65.20;;;;;;5111710;28;20040;-54
2021/03/09 09:58:48;;;;;;;18.70;14.98;;;12.00;64.20;;;;;;5094399;28;20065;-49
2021/03/09 10:01:17;;;;;;;19.65;15.20;;;12.30;64.00;;;;;;5094556;28;20058;-53
2021/03/09 10:04:01;;;;;;;21.92;16.23;;;12.00;64.30;;;;;;5094497;28;20403;-55
2021/03/09 10:06:29;;;;;;;19.63;16.40;;;11.70;64.20;;;;;;5091488;28;20035;-56
2021/03/09 10:09:06;;;;;;;19.48;15.77;;;12.30;64.80;;;;;;5094334;28;20048;-56
2021/03/09 10:11:32;;;;;;;17.85;14.63;;;12.30;64.20;;;;;;5094798;28;20032;-56
2021/03/09 10:14:07;;;;;;;18.35;15.13;;;12.00;64.50;;;;;;5094333;28;20100;-55
2021/03/09 10:16:40;;;;;;;20.58;15.80;;;12.00;65.20;;;;;;5027310;28;20042;-55
2021/03/09 10:19:11;;;;;;;20.85;15.55;;;11.90;64.10;;;;;;5060803;28;20036;-52
2021/03/09 10:21:39;;;;;;;18.95;15.73;;;11.60;65.10;;;;;;5044089;28;20076;-54
2021/03/09 10:24:06;;;;;;;20.10;15.15;;;12.00;65.10;;;;;;5094072;28;20119;-55
2021/03/09 10:26:41;;;;;;;19.88;14.10;;;12.20;64.90;;;;;;5094166;28;20459;-53
2021/03/09 10:29:20;;;;;;;20.63;14.55;;;12.10;64.20;;;;;;5053594;28;20045;-53
2021/03/09 10:32:02;;;;;;;18.40;14.10;;;11.80;64.90;;;;;;5053923;28;20037;-53
2021/03/09 10:34:39;;;;;;;19.38;15.15;;;11.80;65.50;;;;;;5051551;28;20032;-55
2021/03/09 10:37:09;;;;;;;17.73;13.60;;;11.70;65.60;;;;;;5037278;28;20083;-53
2021/03/09 10:39:37;;;;;;;16.30;13.50;;;11.90;64.20;;;;;;5036935;28;20060;-55
2021/03/09 10:42:33;;;;;;;18.02;13.27;;;11.40;64.40;;;;;;5053774;28;20119;-54
2021/03/09 10:45:23;;;;;;;17.80;13.32;;;11.50;65.30;;;;;;5053949;28;20051;-53
2021/03/09 10:47:55;;;;;;;16.88;13.45;;;11.90;66.20;;;;;;5053536;28;20041;-53
2021/03/09 10:50:32;;;;;;;18.17;14.32;;;11.80;63.90;;;;;;5036585;28;20511;-55
2021/03/09 10:52:58;;;;;;;19.73;16.38;;;11.60;64.70;;;;;;5052958;28;20476;-54
2021/03/09 10:55:25;;;;;;;18.50;14.68;;;11.80;66.00;;;;;;5019873;28;20488;-54
2021/03/09 10:57:52;;;;;;;19.77;15.20;;;12.30;66.50;;;;;;5052942;28;20037;-54
2021/03/09 11:00:19;;;;;;;18.38;14.60;;;12.40;64.30;;;;;;5077962;28;20067;-54
2021/03/09 11:02:46;;;;;;;20.42;14.18;;;12.50;62.00;;;;;;5093761;28;20147;-54
2021/03/09 11:05:13;;;;;;;16.65;13.20;;;12.30;61.70;;;;;;5095250;28;20044;-54
2021/03/09 11:07:39;;;;;;;15.75;11.70;;;12.60;62.00;;;;;;5095633;28;20028;-53
2021/03/09 11:10:07;;;;;;;13.95;10.80;;;12.30;60.00;;;;;;5093797;28;20390;-55
2021/03/09 11:12:33;;;;;;;17.88;12.25;;;12.40;60.70;;;;;;5060073;28;20055;-53
2021/03/09 11:14:59;;;;;;;17.73;12.93;;;12.20;60.10;;;;;;5095313;28;20028;-54
2021/03/09 11:17:25;;;;;;;16.38;12.50;;;12.60;62.00;;;;;;5095391;28;20047;-54
2021/03/09 11:19:51;;;;;;;16.40;13.20;;;12.50;61.50;;;;;;5095262;28;20089;-53
2021/03/09 11:22:17;;;;;;;13.88;11.68;;;12.30;61.40;;;;;;5094867;28;20044;-52
2021/03/09 11:24:43;;;;;;;15.23;11.73;;;12.50;59.90;;;;;;5095212;28;20035;-52
2021/03/09 11:27:10;;;;;;;14.88;11.43;;;12.90;59.90;;;;;;5110341;28;20040;-53
2021/03/09 11:29:37;;;;;;;17.80;12.68;;;12.60;59.40;;;;;;5059932;28;20125;-55
2021/03/09 11:32:06;;;;;;;16.52;11.60;;;12.40;60.10;;;;;;5094396;28;20506;-55
2021/03/09 11:34:32;;;;;;;15.40;11.85;;;12.30;60.00;;;;;;5094616;28;20475;-53
2021/03/09 11:36:58;;;;;;;13.70;11.20;;;12.20;59.80;;;;;;5094304;28;20028;-53
2021/03/09 11:39:25;;;;;;;17.88;12.20;;;12.60;59.20;;;;;;5094524;28;20099;-52
2021/03/09 11:41:52;;;;;;;16.52;13.15;;;12.40;60.10;;;;;;5094495;28;20093;-53
2021/03/09 11:44:19;;;;;;;14.43;12.00;;;12.00;60.60;;;;;;5094510;28;20038;-55
2021/03/09 11:46:45;;;;;;;16.38;13.02;;;12.30;60.30;;;;;;5094232;28;20032;-55
2021/03/09 11:49:11;;;;;;;16.05;11.93;;;12.20;60.50;;;;;;5094408;28;20536;-53
2021/03/09 11:51:37;;;;;;;13.73;10.45;;;12.20;61.10;;;;;;5094235;28;20047;-55
2021/03/09 11:54:03;;;;;;;15.75;12.07;;;11.80;59.60;;;;;;5094268;28;20036;-55
2021/03/09 11:56:29;;;;;;;16.80;12.18;;;11.90;60.20;;;;;;5092586;28;20067;-55
2021/03/09 11:58:56;;;;;;;16.20;11.88;;;12.00;60.60;;;;;;5094984;28;20070;-54
2021/03/09 12:01:21;;;;;;;15.38;11.43;;;12.00;61.30;;;;;;5094634;28;20055;-55
2021/03/09 12:03:47;;;;;;;15.70;13.05;;;11.70;61.00;;;;;;5094239;28;20056;-56
2021/03/09 12:06:14;;;;;;;14.90;10.55;;;11.80;60.80;;;;;;5094102;28;20020;-54
2021/03/09 12:08:40;;;;;;;15.25;12.43;;;11.70;59.90;;;;;;5091653;28;20595;-53
2021/03/09 12:11:06;;;;;;;16.65;13.00;;;11.40;60.90;;;;;;5092188;28;20032;-56
2021/03/09 12:13:31;;;;;;;17.50;12.05;;;11.50;61.30;;;;;;5051944;28;20122;-52
2021/03/09 12:15:58;;;;;;;16.70;12.05;;;11.60;61.00;;;;;;5051702;28;20041;-54
2021/03/09 12:18:24;;;;;;;16.88;11.77;;;11.60;61.10;;;;;;5051888;28;20048;-55
2021/03/09 12:20:49;;;;;;;16.65;12.60;;;11.50;61.90;;;;;;5051557;28;20033;-53
2021/03/09 12:23:15;;;;;;;21.92;14.75;;;11.60;61.70;;;;;;5051505;28;20045;-53
2021/03/09 12:25:41;;;;;;;18.90;13.13;;;11.90;60.80;;;;;;5051711;28;20052;-53
2021/03/09 12:28:07;;;;;;;17.40;13.07;;;11.90;61.50;;;;;;5051790;28;20499;-55
2021/03/09 12:30:33;;;;;;;16.05;12.27;;;11.60;62.60;;;;;;4995674;28;20038;-55
2021/03/09 12:32:59;;;;;;;16.88;13.10;;;11.40;60.00;;;;;;4979437;28;20042;-53
2021/03/09 12:35:26;;;;;;;19.02;11.98;;;11.60;60.70;;;;;;4995324;28;20117;-53
2021/03/09 12:37:51;;;;;;;20.92;13.73;;;11.60;61.00;;;;;;5011859;28;20468;-56
2021/03/09 12:40:18;;;;;;;16.83;12.15;;;11.60;61.10;;;;;;4979057;28;20120;-54
2021/03/09 12:42:44;;;;;;;13.82;11.55;;;11.70;60.80;;;;;;4979065;28;20116;-55
2021/03/09 12:45:11;;;;;;;23.20;15.80;;;12.00;61.20;;;;;;5042365;28;20108;-56
2021/03/09 12:47:36;;;;;;;21.15;15.30;;;11.80;60.40;;;;;;5051427;28;20387;-56